createdAt,value
2018-05-07T00:00:58.762Z,12.20
2018-05-07T00:03:26.402Z,12.30
2018-05-07T00:05:54.022Z,12.30
2018-05-07T00:08:21.561Z,12.30
2018-05-07T00:10:49.194Z,12.30
2018-05-07T00:13:16.798Z,12.20
2018-05-07T00:15:44.424Z,11.90
2018-05-07T00:18:12.033Z,11.80
2018-05-07T00:20:40.472Z,11.60
2018-05-07T00:23:07.978Z,11.60
2018-05-07T00:25:35.643Z,11.60
2018-05-07T00:28:03.996Z,11.50
2018-05-07T00:30:31.630Z,11.50
2018-05-07T00:32:59.212Z,11.40
2018-05-07T00:35:26.786Z,11.60
2018-05-07T00:37:55.150Z,11.80
2018-05-07T00:40:22.742Z,11.80
2018-05-07T00:42:50.366Z,11.80
2018-05-07T00:45:17.945Z,11.80
2018-05-07T00:47:46.341Z,11.70
2018-05-07T00:50:13.896Z,11.70
2018-05-07T00:52:41.498Z,11.80
2018-05-07T00:55:21.826Z,11.70
2018-05-07T00:57:49.396Z,11.70
2018-05-07T01:00:16.974Z,11.60
2018-05-07T01:02:44.589Z,11.60
2018-05-07T01:05:12.963Z,11.60
2018-05-07T01:07:41.306Z,11.60
2018-05-07T01:10:08.946Z,11.60
2018-05-07T01:12:36.527Z,11.60
2018-05-07T01:15:04.172Z,11.50
2018-05-07T01:17:31.738Z,11.40
2018-05-07T01:19:59.358Z,11.30
2018-05-07T01:22:26.924Z,11.20
2018-05-07T01:24:54.546Z,11.10
2018-05-07T01:27:22.176Z,11.00
2018-05-07T01:29:49.769Z,11.00
2018-05-07T01:32:17.374Z,11.00
2018-05-07T01:34:44.935Z,10.90
2018-05-07T01:37:12.549Z,10.80
2018-05-07T01:39:40.862Z,10.80
2018-05-07T01:42:08.509Z,10.80
2018-05-07T01:44:36.149Z,10.80
2018-05-07T01:47:03.706Z,10.70
2018-05-07T01:49:31.272Z,10.70
2018-05-07T01:51:59.648Z,10.60
2018-05-07T01:54:28.024Z,10.60
2018-05-07T01:56:55.623Z,10.60
2018-05-07T01:59:23.201Z,10.60
2018-05-07T02:01:50.770Z,10.60
2018-05-07T02:04:18.341Z,10.50
2018-05-07T02:06:45.929Z,10.40
2018-05-07T02:09:14.297Z,10.20
2018-05-07T02:11:41.858Z,10.20
2018-05-07T02:14:09.435Z,10.10
2018-05-07T02:16:37.805Z,9.90
2018-05-07T02:19:06.129Z,9.90
2018-05-07T02:21:33.723Z,9.90
2018-05-07T02:24:01.350Z,9.90
2018-05-07T02:26:28.914Z,9.90
2018-05-07T02:28:56.541Z,9.80
2018-05-07T02:31:24.936Z,9.70
2018-05-07T02:33:52.514Z,9.70
2018-05-07T02:36:20.107Z,9.70
2018-05-07T02:38:47.651Z,9.70
2018-05-07T02:41:15.255Z,9.80
2018-05-07T02:43:43.625Z,9.70
2018-05-07T02:46:33.708Z,9.60
2018-05-07T02:49:02.053Z,9.50
2018-05-07T02:51:29.677Z,9.50
2018-05-07T02:53:57.234Z,9.50
2018-05-07T02:56:24.837Z,9.50
2018-05-07T02:58:52.421Z,9.50
2018-05-07T03:01:20.757Z,9.40
2018-05-07T03:03:48.371Z,9.40
2018-05-07T03:06:16.766Z,9.40
2018-05-07T03:08:44.385Z,9.30
2018-05-07T03:11:11.957Z,9.30
2018-05-07T03:13:40.302Z,9.30
2018-05-07T03:16:07.894Z,9.30
2018-05-07T03:18:36.250Z,9.30
2018-05-07T03:21:03.827Z,9.30
2018-05-07T03:23:31.433Z,9.30
2018-05-07T03:25:58.991Z,9.30
2018-05-07T03:28:26.615Z,9.20
2018-05-07T03:30:54.230Z,9.10
2018-05-07T03:33:21.781Z,8.90
2018-05-07T03:35:49.354Z,8.80
2018-05-07T03:38:16.928Z,8.70
2018-05-07T03:40:44.534Z,8.70
2018-05-07T03:43:12.098Z,8.70
2018-05-07T03:45:39.724Z,8.70
2018-05-07T03:48:07.285Z,8.70
2018-05-07T03:50:36.485Z,8.70
2018-05-07T03:53:04.086Z,8.70
2018-05-07T03:55:31.689Z,8.80
2018-05-07T03:57:59.290Z,8.90
2018-05-07T04:00:26.917Z,8.90
2018-05-07T04:02:54.527Z,8.90
2018-05-07T04:05:22.105Z,8.90
2018-05-07T04:07:49.699Z,8.90
2018-05-07T04:10:17.276Z,8.90
2018-05-07T04:12:45.615Z,9.00
2018-05-07T04:15:13.188Z,9.00
2018-05-07T04:17:52.648Z,9.10
2018-05-07T04:23:39.512Z,9.20
2018-05-07T04:26:07.029Z,9.10
2018-05-07T04:28:34.561Z,9.10
2018-05-07T04:31:02.073Z,9.20
2018-05-07T04:33:30.372Z,9.40
2018-05-07T04:35:57.900Z,9.30
2018-05-07T04:38:26.270Z,9.70
2018-05-07T04:41:15.049Z,9.60
2018-05-07T04:43:42.608Z,9.90
2018-05-07T04:46:10.190Z,10.20
2018-05-07T04:48:37.793Z,10.40
2018-05-07T04:51:05.357Z,10.50
2018-05-07T04:53:32.943Z,10.60
2018-05-07T04:56:00.570Z,10.50
2018-05-07T04:58:28.162Z,10.50
2018-05-07T05:00:56.496Z,10.50
2018-05-07T05:03:24.041Z,10.50
2018-05-07T05:05:51.627Z,10.50
2018-05-07T05:08:19.234Z,10.60
2018-05-07T05:10:46.823Z,10.60
2018-05-07T05:13:14.376Z,10.80
2018-05-07T05:15:41.994Z,10.90
2018-05-07T05:18:10.322Z,11.00
2018-05-07T05:20:37.888Z,11.00
2018-05-07T05:23:05.516Z,11.10
2018-05-07T05:25:33.141Z,11.10
2018-05-07T05:28:01.550Z,11.30
2018-05-07T05:30:29.165Z,11.30
2018-05-07T05:32:56.776Z,11.40
2018-05-07T05:35:24.345Z,11.60
2018-05-07T05:37:51.981Z,11.80
2018-05-07T05:40:19.658Z,11.80
2018-05-07T05:42:48.079Z,12.00
2018-05-07T05:45:15.665Z,12.00
2018-05-07T05:47:44.040Z,12.20
2018-05-07T05:50:12.500Z,12.30
2018-05-07T05:52:40.758Z,12.50
2018-05-07T05:55:08.354Z,12.50
2018-05-07T05:57:36.729Z,12.80
2018-05-07T06:00:04.313Z,12.80
2018-05-07T06:02:31.872Z,12.80
2018-05-07T06:04:59.509Z,12.80
2018-05-07T06:07:27.129Z,12.80
2018-05-07T06:09:54.771Z,12.90
2018-05-07T06:12:22.339Z,13.00
2018-05-07T06:14:50.044Z,13.00
2018-05-07T06:17:18.383Z,13.20
2018-05-07T06:19:45.965Z,13.20
2018-05-07T06:22:13.589Z,13.20
2018-05-07T06:24:41.195Z,13.30
2018-05-07T06:27:08.764Z,13.40
2018-05-07T06:29:36.359Z,13.40
2018-05-07T06:32:18.235Z,13.50
2018-05-07T06:34:46.571Z,13.70
2018-05-07T06:37:14.194Z,13.70
2018-05-07T06:39:41.797Z,13.90
2018-05-07T06:42:09.361Z,14.10
2018-05-07T06:44:36.931Z,14.30
2018-05-07T06:47:04.584Z,14.60
2018-05-07T06:49:32.126Z,14.80
2018-05-07T06:51:59.675Z,15.00
2018-05-07T06:54:27.279Z,15.20
2018-05-07T06:56:54.911Z,15.40
2018-05-07T06:59:22.525Z,15.60
2018-05-07T07:01:50.133Z,15.80
2018-05-07T07:04:17.766Z,15.90
2018-05-07T07:06:45.435Z,16.20
2018-05-07T07:09:13.053Z,16.30
2018-05-07T07:11:41.424Z,16.20
2018-05-07T07:14:09.066Z,16.10
2018-05-07T07:16:36.637Z,16.20
2018-05-07T07:19:04.243Z,16.30
2018-05-07T07:21:31.925Z,16.40
2018-05-07T07:23:59.523Z,16.50
2018-05-07T07:26:27.095Z,16.60
2018-05-07T07:28:54.665Z,16.70
2018-05-07T07:31:23.029Z,17.10
2018-05-07T07:33:50.670Z,17.10
2018-05-07T07:36:18.209Z,17.40
2018-05-07T07:38:45.809Z,17.50
2018-05-07T07:41:13.414Z,17.70
2018-05-07T07:43:40.957Z,17.90
2018-05-07T07:46:08.551Z,18.00
2018-05-07T07:48:36.164Z,18.20
2018-05-07T07:51:04.598Z,18.40
2018-05-07T07:53:32.254Z,18.40
2018-05-07T07:55:59.813Z,18.70
2018-05-07T07:58:27.421Z,18.90
2018-05-07T08:00:55.817Z,19.40
2018-05-07T08:03:23.431Z,19.40
2018-05-07T08:05:51.052Z,19.90
2018-05-07T08:08:18.641Z,20.30
2018-05-07T08:10:46.219Z,20.70
2018-05-07T08:13:13.791Z,20.60
2018-05-07T08:15:41.367Z,20.80
2018-05-07T08:18:09.719Z,21.10
2018-05-07T08:20:37.342Z,21.10
2018-05-07T08:23:04.877Z,21.90
2018-05-07T08:25:32.495Z,22.80
2018-05-07T08:28:00.096Z,24.00
2018-05-07T08:30:27.717Z,25.80
2018-05-07T08:32:55.306Z,27.20
2018-05-07T08:35:23.689Z,30.30
2018-05-07T08:37:52.021Z,31.50
2018-05-07T08:40:19.598Z,31.40
2018-05-07T08:42:47.187Z,30.70
2018-05-07T08:45:15.518Z,32.60
2018-05-07T08:47:43.125Z,32.60
2018-05-07T08:50:10.799Z,33.10
2018-05-07T08:52:38.486Z,33.10
2018-05-07T08:55:06.049Z,32.40
2018-05-07T08:57:33.650Z,32.30
2018-05-07T09:00:01.295Z,33.00
2018-05-07T09:02:28.936Z,31.90
2018-05-07T09:04:56.509Z,31.60
2018-05-07T09:07:24.126Z,31.80
2018-05-07T09:09:51.689Z,31.80
2018-05-07T09:12:19.252Z,32.40
2018-05-07T09:14:46.812Z,31.80
2018-05-07T09:17:14.397Z,32.00
2018-05-07T09:19:42.020Z,31.30
2018-05-07T09:22:09.590Z,31.70
2018-05-07T09:24:37.193Z,31.10
2018-05-07T09:27:04.770Z,31.50
2018-05-07T09:29:32.377Z,32.10
2018-05-07T09:31:59.980Z,32.60
2018-05-07T09:34:27.581Z,32.10
2018-05-07T09:36:55.443Z,32.80
2018-05-07T09:39:23.791Z,32.50
2018-05-07T09:41:51.390Z,32.50
2018-05-07T09:44:19.010Z,33.20
2018-05-07T09:46:46.642Z,33.40
2018-05-07T09:49:14.230Z,34.20
2018-05-07T09:51:41.872Z,34.10
2018-05-07T09:54:09.470Z,34.40
2018-05-07T09:56:49.702Z,34.90
2018-05-07T09:59:17.268Z,34.80
2018-05-07T10:01:44.881Z,34.60
2018-05-07T10:04:12.517Z,34.80
2018-05-07T10:06:40.839Z,35.70
2018-05-07T10:09:08.471Z,35.60
2018-05-07T10:11:36.031Z,36.00
2018-05-07T10:14:03.639Z,35.70
2018-05-07T10:16:31.271Z,35.80
2018-05-07T10:18:58.884Z,34.80
2018-05-07T10:21:27.251Z,33.90
2018-05-07T10:23:54.837Z,33.90
2018-05-07T10:26:23.196Z,34.90
2018-05-07T10:28:51.573Z,34.50
2018-05-07T10:31:19.133Z,34.50
2018-05-07T10:33:46.729Z,34.10
2018-05-07T10:36:14.298Z,34.70
2018-05-07T10:38:41.929Z,35.00
2018-05-07T10:41:10.287Z,34.60
2018-05-07T10:43:37.874Z,34.60
2018-05-07T10:46:05.454Z,34.90
2018-05-07T10:48:33.029Z,35.00
2018-05-07T10:51:00.630Z,34.00
2018-05-07T10:53:29.012Z,33.70
2018-05-07T10:55:56.624Z,33.70
2018-05-07T10:58:24.194Z,34.30
2018-05-07T11:00:51.754Z,34.50
2018-05-07T11:03:19.328Z,34.30
2018-05-07T11:05:46.898Z,33.40
2018-05-07T11:08:14.504Z,33.30
2018-05-07T11:10:42.114Z,33.30
2018-05-07T11:13:09.713Z,33.40
2018-05-07T11:15:37.285Z,33.40
2018-05-07T11:18:04.890Z,33.60
2018-05-07T11:20:32.465Z,32.90
2018-05-07T11:23:00.078Z,32.70
2018-05-07T11:25:27.709Z,33.00
2018-05-07T11:27:55.374Z,33.60
2018-05-07T11:30:22.982Z,34.10
2018-05-07T11:32:50.582Z,33.60
2018-05-07T11:35:18.957Z,33.20
2018-05-07T11:37:47.397Z,33.30
2018-05-07T11:40:15.046Z,33.20
2018-05-07T11:42:42.651Z,33.80
2018-05-07T11:45:11.014Z,33.90
2018-05-07T11:47:38.621Z,33.90
2018-05-07T11:50:06.959Z,33.70
2018-05-07T11:52:34.509Z,33.70
2018-05-07T11:55:02.118Z,33.40
2018-05-07T11:57:29.671Z,33.10
2018-05-07T11:59:57.291Z,32.80
2018-05-07T12:02:24.997Z,32.80
2018-05-07T12:04:58.439Z,32.50
2018-05-07T12:07:26.067Z,33.20
2018-05-07T12:09:53.690Z,34.10
2018-05-07T12:12:22.154Z,33.40
2018-05-07T12:14:49.709Z,33.40
2018-05-07T12:17:17.382Z,33.30
2018-05-07T12:19:44.987Z,33.00
2018-05-07T12:22:12.601Z,32.80
2018-05-07T12:24:40.193Z,32.70
2018-05-07T12:27:07.782Z,32.20
2018-05-07T12:29:35.381Z,32.20
2018-05-07T12:32:02.999Z,32.30
2018-05-07T12:34:30.630Z,32.30
2018-05-07T12:36:58.202Z,32.00
2018-05-07T12:39:25.786Z,31.60
2018-05-07T12:41:53.423Z,31.80
2018-05-07T12:44:20.981Z,31.80
2018-05-07T12:46:48.617Z,32.40
2018-05-07T12:49:16.241Z,31.70
2018-05-07T12:51:43.834Z,31.70
2018-05-07T12:54:12.197Z,30.90
2018-05-07T12:56:39.823Z,30.80
2018-05-07T12:59:08.196Z,31.20
2018-05-07T13:01:35.781Z,31.20
2018-05-07T13:04:03.416Z,31.10
2018-05-07T13:06:31.051Z,31.30
2018-05-07T13:08:58.650Z,31.20
2018-05-07T13:11:26.202Z,31.00
2018-05-07T13:13:53.857Z,31.70
2018-05-07T13:16:21.473Z,31.60
2018-05-07T13:18:49.066Z,31.60
2018-05-07T13:21:16.632Z,31.50
2018-05-07T13:23:44.218Z,31.80
2018-05-07T13:26:11.800Z,31.70
2018-05-07T13:28:39.354Z,31.60
2018-05-07T13:31:06.929Z,31.50
2018-05-07T13:33:34.519Z,31.50
2018-05-07T13:36:02.104Z,31.10
2018-05-07T13:38:29.664Z,30.70
2018-05-07T13:40:57.249Z,31.00
2018-05-07T13:43:24.831Z,30.90
2018-05-07T13:45:52.436Z,30.80
2018-05-07T13:48:20.031Z,30.80
2018-05-07T13:50:47.614Z,31.00
2018-05-07T13:53:15.984Z,31.60
2018-05-07T13:55:43.597Z,31.50
2018-05-07T13:58:11.173Z,31.60
2018-05-07T14:01:02.822Z,31.40
2018-05-07T14:03:30.416Z,31.00
2018-05-07T14:05:58.049Z,30.90
2018-05-07T14:08:25.662Z,30.70
2018-05-07T14:10:55.211Z,30.70
2018-05-07T14:13:23.631Z,30.60
2018-05-07T14:15:51.177Z,30.50
2018-05-07T14:21:26.231Z,30.80
2018-05-07T14:24:13.144Z,30.20
2018-05-07T14:26:41.567Z,30.10
2018-05-07T14:29:09.180Z,30.10
2018-05-07T14:31:41.220Z,30.10
2018-05-07T14:34:08.812Z,30.10
2018-05-07T14:36:36.386Z,30.30
2018-05-07T14:39:04.002Z,30.10
2018-05-07T14:41:31.595Z,29.90
2018-05-07T14:43:59.137Z,29.70
2018-05-07T14:46:27.505Z,30.00
2018-05-07T14:48:55.842Z,29.80
2018-05-07T14:51:24.525Z,29.80
2018-05-07T14:53:53.112Z,29.50
2018-05-07T14:56:25.141Z,29.00
2018-05-07T14:58:52.693Z,28.90
2018-05-07T15:10:05.645Z,28.70
2018-05-07T15:12:33.253Z,28.80
2018-05-07T15:17:54.325Z,29.10
2018-05-07T15:20:21.935Z,29.00
2018-05-07T15:22:52.339Z,28.70
2018-05-07T15:25:20.748Z,28.60
2018-05-07T15:27:48.393Z,28.60
2018-05-07T15:30:24.578Z,28.70
2018-05-07T15:32:52.169Z,28.50
2018-05-07T15:35:19.730Z,28.50
2018-05-07T15:37:47.333Z,28.50
2018-05-07T15:40:14.940Z,28.10
2018-05-07T15:42:42.514Z,28.00
2018-05-07T15:45:10.109Z,27.80
2018-05-07T15:47:37.752Z,27.80
2018-05-07T15:50:22.471Z,27.80
2018-05-07T15:52:50.842Z,27.90
2018-05-07T15:55:18.475Z,27.90
2018-05-07T15:57:46.051Z,28.10
2018-05-07T16:00:13.624Z,28.10
2018-05-07T16:02:41.319Z,27.90
2018-05-07T16:05:09.671Z,27.50
2018-05-07T16:07:37.271Z,27.40
2018-05-07T16:10:04.900Z,27.70
2018-05-07T16:12:32.477Z,27.80
2018-05-07T16:15:00.163Z,27.70
2018-05-07T16:17:27.696Z,27.70
2018-05-07T16:19:55.324Z,27.90
2018-05-07T16:22:23.053Z,28.30
2018-05-07T16:24:51.324Z,28.20
2018-05-07T16:27:18.920Z,28.10
2018-05-07T16:29:46.555Z,27.80
2018-05-07T16:32:14.195Z,27.80
2018-05-07T16:34:42.510Z,27.80
2018-05-07T16:37:10.106Z,27.80
2018-05-07T16:42:30.397Z,28.10
2018-05-07T16:44:57.966Z,28.40
2018-05-07T16:47:25.620Z,28.40
2018-05-07T16:49:53.175Z,28.10
2018-05-07T16:52:20.763Z,27.60
2018-05-07T16:54:48.321Z,26.90
2018-05-07T16:57:15.959Z,26.20
2018-05-07T16:59:43.661Z,25.60
2018-05-07T17:02:11.283Z,25.20
2018-05-07T17:04:38.909Z,24.90
2018-05-07T17:07:06.515Z,24.80
2018-05-07T17:09:34.112Z,24.60
2018-05-07T17:12:02.441Z,24.30
2018-05-07T17:14:30.030Z,24.30
2018-05-07T17:16:57.655Z,24.10
2018-05-07T17:19:25.268Z,23.80
2018-05-07T17:21:53.620Z,23.40
2018-05-07T17:24:21.220Z,23.40
2018-05-07T17:26:49.568Z,23.00
2018-05-07T17:29:17.173Z,23.00
2018-05-07T17:31:44.768Z,22.90
2018-05-07T17:34:12.352Z,22.70
2018-05-07T17:36:39.962Z,22.60
2018-05-07T17:39:07.521Z,22.40
2018-05-07T17:41:35.137Z,22.30
2018-05-07T17:44:14.537Z,22.20
2018-05-07T17:46:53.902Z,22.10
2018-05-07T17:49:21.446Z,22.00
2018-05-07T17:51:49.047Z,21.90
2018-05-07T17:54:17.482Z,21.70
2018-05-07T17:56:45.090Z,21.70
2018-05-07T17:59:12.671Z,21.60
2018-05-07T18:01:40.278Z,21.40
2018-05-07T18:04:07.850Z,21.30
2018-05-07T18:06:46.713Z,21.30
2018-05-07T18:09:33.884Z,21.20
2018-05-07T18:12:01.511Z,21.00
2018-05-07T18:17:22.439Z,20.80
2018-05-07T18:19:50.039Z,20.60
2018-05-07T18:22:18.387Z,20.40
2018-05-07T18:25:07.235Z,20.40
2018-05-07T18:27:34.821Z,20.20
2018-05-07T18:30:02.458Z,19.80
2018-05-07T18:32:37.858Z,19.60
2018-05-07T18:35:05.465Z,19.40
2018-05-07T18:37:33.052Z,19.20
2018-05-07T18:40:00.624Z,19.00
2018-05-07T18:42:48.629Z,18.80
2018-05-07T18:45:22.783Z,18.60
2018-05-07T18:47:54.820Z,18.40
2018-05-07T18:50:24.443Z,18.20
2018-05-07T18:52:52.070Z,18.00
2018-05-07T18:55:19.636Z,17.80
2018-05-07T18:57:47.291Z,17.80
2018-05-07T19:00:22.178Z,18.00
2018-05-07T19:02:49.811Z,18.20
2018-05-07T19:05:17.397Z,18.20
2018-05-07T19:07:45.781Z,17.80
2018-05-07T19:10:19.273Z,17.70
2018-05-07T19:12:46.908Z,17.60
2018-05-07T19:15:14.521Z,17.40
2018-05-07T19:17:42.125Z,17.20
2018-05-07T19:20:09.788Z,17.00
2018-05-07T19:22:37.416Z,17.00
2018-05-07T19:25:05.034Z,16.90
2018-05-07T19:27:33.433Z,16.90
2018-05-07T19:30:13.486Z,16.80
2018-05-07T19:32:41.127Z,16.70
2018-05-07T19:35:08.733Z,16.60
2018-05-07T19:37:36.360Z,16.50
2018-05-07T19:40:04.011Z,16.50
2018-05-07T19:42:31.626Z,16.40
2018-05-07T19:44:59.303Z,16.30
2018-05-07T19:47:26.940Z,16.30
2018-05-07T19:49:54.594Z,16.30
2018-05-07T19:52:22.206Z,16.30
2018-05-07T19:54:50.560Z,16.20
2018-05-07T19:57:18.184Z,16.20
2018-05-07T19:59:45.821Z,16.20
2018-05-07T20:02:13.388Z,16.20
2018-05-07T20:04:40.957Z,16.10
2018-05-07T20:07:33.873Z,16.10
2018-05-07T20:10:02.393Z,16.00
2018-05-07T20:12:30.063Z,16.00
2018-05-07T20:14:57.654Z,16.00
2018-05-07T20:17:25.231Z,15.90
2018-05-07T20:19:52.920Z,15.90
2018-05-07T20:22:20.488Z,15.90
2018-05-07T20:24:48.126Z,15.90
2018-05-07T20:27:15.713Z,15.90
2018-05-07T20:29:43.347Z,15.90
2018-05-07T20:32:11.737Z,15.90
2018-05-07T20:34:39.365Z,15.90
2018-05-07T20:37:06.985Z,15.90
2018-05-07T20:39:34.576Z,15.80
2018-05-07T20:42:02.171Z,15.60
2018-05-07T20:44:30.557Z,15.40
2018-05-07T20:46:58.258Z,15.40
2018-05-07T20:49:26.767Z,15.40
2018-05-07T20:51:54.382Z,15.50
2018-05-07T20:54:22.022Z,15.50
2018-05-07T20:56:50.432Z,15.30
2018-05-07T20:59:18.088Z,15.20
2018-05-07T21:01:45.727Z,15.20
2018-05-07T21:04:13.318Z,15.10
2018-05-07T21:06:40.933Z,15.00
2018-05-07T21:09:09.306Z,15.00
2018-05-07T21:11:37.013Z,14.90
2018-05-07T21:14:04.669Z,14.90
2018-05-07T21:16:32.312Z,14.80
2018-05-07T21:18:59.903Z,14.50
2018-05-07T21:21:27.457Z,14.30
2018-05-07T21:23:55.054Z,14.20
2018-05-07T21:26:22.682Z,14.00
2018-05-07T21:28:50.345Z,13.90
2018-05-07T21:31:17.939Z,13.80
2018-05-07T21:33:45.558Z,13.70
2018-05-07T21:36:13.182Z,13.60
2018-05-07T21:38:41.593Z,13.60
2018-05-07T21:41:09.240Z,13.50
2018-05-07T21:43:36.871Z,13.50
2018-05-07T21:46:05.208Z,13.40
2018-05-07T21:48:32.835Z,13.40
2018-05-07T21:51:01.218Z,13.40
2018-05-07T21:53:28.778Z,13.40
2018-05-07T21:55:56.346Z,13.50
2018-05-07T21:58:23.909Z,13.40
2018-05-07T22:00:51.557Z,13.30
2018-05-07T22:03:19.222Z,13.30
2018-05-07T22:05:46.817Z,13.20
2018-05-07T22:08:14.454Z,13.20
2018-05-07T22:10:42.076Z,13.10
2018-05-07T22:13:09.708Z,13.10
2018-05-07T22:15:37.791Z,13.00
2018-05-07T22:18:05.410Z,13.00
2018-05-07T22:20:33.059Z,12.90
2018-05-07T22:23:00.662Z,12.90
2018-05-07T22:25:28.279Z,13.00
2018-05-07T22:27:55.858Z,12.90
2018-05-07T22:30:23.474Z,12.90
2018-05-07T22:32:51.851Z,12.80
2018-05-07T22:35:19.415Z,12.70
2018-05-07T22:37:47.794Z,12.70
2018-05-07T22:40:16.198Z,12.60
2018-05-07T22:42:43.826Z,12.60
2018-05-07T22:45:11.446Z,12.60
2018-05-07T22:47:39.055Z,12.60
2018-05-07T22:50:07.447Z,12.40
2018-05-07T22:52:35.012Z,12.40
2018-05-07T22:55:08.539Z,12.30
2018-05-07T22:57:36.111Z,12.30
2018-05-07T23:00:03.749Z,12.20
2018-05-07T23:02:31.372Z,12.20
2018-05-07T23:04:59.734Z,12.00
2018-05-07T23:07:28.146Z,11.90
2018-05-07T23:09:55.810Z,11.90
2018-05-07T23:12:23.405Z,11.80
2018-05-07T23:14:50.974Z,11.70
2018-05-07T23:17:18.569Z,11.70
2018-05-07T23:19:46.887Z,11.70
2018-05-07T23:22:14.527Z,11.60
2018-05-07T23:24:42.167Z,11.70
2018-05-07T23:27:10.490Z,11.60
2018-05-07T23:29:38.118Z,11.50
2018-05-07T23:32:06.543Z,11.50
2018-05-07T23:34:34.160Z,11.50
2018-05-07T23:37:01.842Z,11.40
2018-05-07T23:39:29.453Z,11.50
2018-05-07T23:41:57.040Z,11.40
2018-05-07T23:44:25.438Z,11.60
2018-05-07T23:46:53.085Z,11.50
2018-05-07T23:49:20.774Z,11.60
2018-05-07T23:51:48.367Z,11.50
2018-05-07T23:54:15.990Z,11.40
2018-05-07T23:56:43.570Z,11.30
2018-05-07T23:59:11.189Z,11.30
